sensor_id;sensor_type;location;lat;lon;timestamp;P1;durP1;ratioP1;P2;durP2;ratioP2
37131;SDS011;23035;50.032;21.978;2024-03-17T00:04:06;22.25;;;16.02;;
37131;SDS011;23035;50.032;21.978;2024-03-17T00:09:10;23.25;;;16.00;;
37131;SDS011;23035;50.032;21.978;2024-03-17T00:14:13;22.73;;;14.05;;
37131;SDS011;23035;50.032;21.978;2024-03-17T00:19:17;21.70;;;14.73;;
37131;SDS011;23035;50.032;21.978;2024-03-17T00:24:20;20.70;;;13.60;;
37131;SDS011;23035;50.032;21.978;2024-03-17T00:29:23;24.52;;;14.50;;
37131;SDS011;23035;50.032;21.978;2024-03-17T00:34:28;22.00;;;14.18;;
37131;SDS011;23035;50.032;21.978;2024-03-17T00:39:31;25.92;;;15.50;;
37131;SDS011;23035;50.032;21.978;2024-03-17T00:44:34;25.52;;;15.20;;
37131;SDS011;23035;50.032;21.978;2024-03-17T00:49:39;28.00;;;15.23;;
37131;SDS011;23035;50.032;21.978;2024-03-17T00:54:42;25.13;;;14.20;;
37131;SDS011;23035;50.032;21.978;2024-03-17T00:59:49;23.35;;;15.10;;
37131;SDS011;23035;50.032;21.978;2024-03-17T01:04:55;20.48;;;14.05;;
37131;SDS011;23035;50.032;21.978;2024-03-17T01:09:58;22.20;;;14.85;;
37131;SDS011;23035;50.032;21.978;2024-03-17T01:15:02;25.10;;;13.50;;
37131;SDS011;23035;50.032;21.978;2024-03-17T01:20:08;25.83;;;14.32;;
37131;SDS011;23035;50.032;21.978;2024-03-17T01:25:12;23.63;;;14.35;;
37131;SDS011;23035;50.032;21.978;2024-03-17T01:30:15;25.00;;;14.02;;
37131;SDS011;23035;50.032;21.978;2024-03-17T01:35:20;27.33;;;15.65;;
37131;SDS011;23035;50.032;21.978;2024-03-17T01:40:23;23.63;;;15.03;;
37131;SDS011;23035;50.032;21.978;2024-03-17T01:45:27;23.98;;;15.18;;
37131;SDS011;23035;50.032;21.978;2024-03-17T01:50:34;24.15;;;16.73;;
37131;SDS011;23035;50.032;21.978;2024-03-17T01:55:40;23.42;;;17.00;;
37131;SDS011;23035;50.032;21.978;2024-03-17T02:00:45;24.08;;;16.48;;
37131;SDS011;23035;50.032;21.978;2024-03-17T02:05:50;25.90;;;17.55;;
37131;SDS011;23035;50.032;21.978;2024-03-17T02:10:53;23.38;;;16.70;;
37131;SDS011;23035;50.032;21.978;2024-03-17T02:15:57;23.70;;;16.38;;
37131;SDS011;23035;50.032;21.978;2024-03-17T02:21:01;22.15;;;15.70;;
37131;SDS011;23035;50.032;21.978;2024-03-17T02:26:05;22.67;;;15.10;;
37131;SDS011;23035;50.032;21.978;2024-03-17T02:31:09;22.75;;;15.95;;
37131;SDS011;23035;50.032;21.978;2024-03-17T02:36:13;23.30;;;15.05;;
37131;SDS011;23035;50.032;21.978;2024-03-17T02:41:20;21.58;;;14.65;;
37131;SDS011;23035;50.032;21.978;2024-03-17T02:46:23;24.52;;;16.17;;
37131;SDS011;23035;50.032;21.978;2024-03-17T02:51:26;20.40;;;15.77;;
37131;SDS011;23035;50.032;21.978;2024-03-17T02:56:30;21.08;;;15.77;;
37131;SDS011;23035;50.032;21.978;2024-03-17T03:01:33;25.77;;;16.13;;
37131;SDS011;23035;50.032;21.978;2024-03-17T03:06:36;18.05;;;15.05;;
37131;SDS011;23035;50.032;21.978;2024-03-17T03:11:41;17.83;;;14.93;;
37131;SDS011;23035;50.032;21.978;2024-03-17T03:16:44;18.90;;;14.13;;
37131;SDS011;23035;50.032;21.978;2024-03-17T03:21:47;21.52;;;11.68;;
37131;SDS011;23035;50.032;21.978;2024-03-17T03:26:51;13.13;;;9.45;;
37131;SDS011;23035;50.032;21.978;2024-03-17T03:31:54;13.35;;;9.10;;
37131;SDS011;23035;50.032;21.978;2024-03-17T03:36:57;8.75;;;7.85;;
37131;SDS011;23035;50.032;21.978;2024-03-17T03:42:02;11.05;;;8.50;;
37131;SDS011;23035;50.032;21.978;2024-03-17T03:47:05;8.38;;;7.57;;
37131;SDS011;23035;50.032;21.978;2024-03-17T03:52:09;9.88;;;7.95;;
37131;SDS011;23035;50.032;21.978;2024-03-17T03:57:13;9.20;;;7.55;;
37131;SDS011;23035;50.032;21.978;2024-03-17T04:02:16;10.67;;;8.13;;
37131;SDS011;23035;50.032;21.978;2024-03-17T04:07:19;20.13;;;8.40;;
37131;SDS011;23035;50.032;21.978;2024-03-17T04:12:24;14.20;;;7.88;;
37131;SDS011;23035;50.032;21.978;2024-03-17T04:17:28;14.30;;;7.63;;
37131;SDS011;23035;50.032;21.978;2024-03-17T04:22:31;16.35;;;7.80;;
37131;SDS011;23035;50.032;21.978;2024-03-17T04:27:35;15.05;;;6.47;;
37131;SDS011;23035;50.032;21.978;2024-03-17T04:32:38;15.48;;;7.20;;
37131;SDS011;23035;50.032;21.978;2024-03-17T04:37:42;10.68;;;7.07;;
37131;SDS011;23035;50.032;21.978;2024-03-17T04:42:46;16.00;;;8.07;;
37131;SDS011;23035;50.032;21.978;2024-03-17T04:47:49;14.75;;;7.07;;
37131;SDS011;23035;50.032;21.978;2024-03-17T04:52:52;12.95;;;7.07;;
37131;SDS011;23035;50.032;21.978;2024-03-17T04:57:56;11.90;;;6.38;;
37131;SDS011;23035;50.032;21.978;2024-03-17T05:02:59;12.63;;;6.55;;
37131;SDS011;23035;50.032;21.978;2024-03-17T05:08:02;11.55;;;6.72;;
37131;SDS011;23035;50.032;21.978;2024-03-17T05:13:07;14.55;;;7.20;;
37131;SDS011;23035;50.032;21.978;2024-03-17T05:18:10;11.10;;;6.20;;
37131;SDS011;23035;50.032;21.978;2024-03-17T05:23:13;10.20;;;7.15;;
37131;SDS011;23035;50.032;21.978;2024-03-17T05:28:17;18.70;;;7.28;;
37131;SDS011;23035;50.032;21.978;2024-03-17T05:33:21;14.00;;;7.05;;
37131;SDS011;23035;50.032;21.978;2024-03-17T05:38:25;14.90;;;6.65;;
37131;SDS011;23035;50.032;21.978;2024-03-17T05:43:32;11.25;;;6.00;;
37131;SDS011;23035;50.032;21.978;2024-03-17T05:48:37;10.73;;;6.07;;
37131;SDS011;23035;50.032;21.978;2024-03-17T05:53:41;10.10;;;5.13;;
37131;SDS011;23035;50.032;21.978;2024-03-17T05:58:47;14.40;;;5.32;;
37131;SDS011;23035;50.032;21.978;2024-03-17T06:03:49;14.90;;;7.75;;
37131;SDS011;23035;50.032;21.978;2024-03-17T06:08:52;23.75;;;8.75;;
37131;SDS011;23035;50.032;21.978;2024-03-17T06:13:57;16.63;;;4.85;;
37131;SDS011;23035;50.032;21.978;2024-03-17T06:19:03;17.95;;;5.45;;
37131;SDS011;23035;50.032;21.978;2024-03-17T06:24:06;18.10;;;6.15;;
37131;SDS011;23035;50.032;21.978;2024-03-17T06:29:11;16.13;;;6.25;;
37131;SDS011;23035;50.032;21.978;2024-03-17T06:34:14;14.65;;;5.80;;
37131;SDS011;23035;50.032;21.978;2024-03-17T06:39:18;15.55;;;5.22;;
37131;SDS011;23035;50.032;21.978;2024-03-17T06:44:24;15.02;;;6.90;;
37131;SDS011;23035;50.032;21.978;2024-03-17T06:49:31;17.02;;;5.78;;
37131;SDS011;23035;50.032;21.978;2024-03-17T06:54:34;21.00;;;6.88;;
37131;SDS011;23035;50.032;21.978;2024-03-17T06:59:39;19.05;;;6.60;;
37131;SDS011;23035;50.032;21.978;2024-03-17T07:04:42;14.23;;;6.28;;
37131;SDS011;23035;50.032;21.978;2024-03-17T07:09:48;16.70;;;6.35;;
37131;SDS011;23035;50.032;21.978;2024-03-17T07:14:53;12.15;;;5.35;;
37131;SDS011;23035;50.032;21.978;2024-03-17T07:20:16;15.27;;;6.20;;
37131;SDS011;23035;50.032;21.978;2024-03-17T07:25:19;16.95;;;7.05;;
37131;SDS011;23035;50.032;21.978;2024-03-17T07:30:24;17.27;;;5.85;;
37131;SDS011;23035;50.032;21.978;2024-03-17T07:35:27;14.75;;;5.60;;
37131;SDS011;23035;50.032;21.978;2024-03-17T07:40:30;17.55;;;6.65;;
37131;SDS011;23035;50.032;21.978;2024-03-17T07:45:35;15.63;;;5.63;;
37131;SDS011;23035;50.032;21.978;2024-03-17T07:50:38;12.75;;;5.22;;
37131;SDS011;23035;50.032;21.978;2024-03-17T07:55:41;12.23;;;5.13;;
37131;SDS011;23035;50.032;21.978;2024-03-17T08:00:45;19.20;;;5.20;;
37131;SDS011;23035;50.032;21.978;2024-03-17T08:05:48;17.15;;;4.90;;
37131;SDS011;23035;50.032;21.978;2024-03-17T08:10:52;11.75;;;4.30;;
37131;SDS011;23035;50.032;21.978;2024-03-17T08:15:57;10.98;;;4.38;;
37131;SDS011;23035;50.032;21.978;2024-03-17T08:21:02;9.55;;;3.63;;
37131;SDS011;23035;50.032;21.978;2024-03-17T08:26:07;14.53;;;4.87;;
37131;SDS011;23035;50.032;21.978;2024-03-17T08:31:25;8.80;;;3.30;;
37131;SDS011;23035;50.032;21.978;2024-03-17T08:36:29;12.67;;;3.87;;
37131;SDS011;23035;50.032;21.978;2024-03-17T08:41:33;12.13;;;2.85;;
37131;SDS011;23035;50.032;21.978;2024-03-17T08:46:37;11.55;;;3.60;;
37131;SDS011;23035;50.032;21.978;2024-03-17T08:51:41;11.20;;;3.90;;
37131;SDS011;23035;50.032;21.978;2024-03-17T09:02:13;14.10;;;4.43;;
37131;SDS011;23035;50.032;21.978;2024-03-17T09:07:17;12.00;;;4.20;;
37131;SDS011;23035;50.032;21.978;2024-03-17T09:17:32;14.07;;;4.15;;
37131;SDS011;23035;50.032;21.978;2024-03-17T09:22:35;9.40;;;3.67;;
37131;SDS011;23035;50.032;21.978;2024-03-17T09:27:42;9.80;;;3.40;;
37131;SDS011;23035;50.032;21.978;2024-03-17T09:32:50;13.93;;;3.60;;
37131;SDS011;23035;50.032;21.978;2024-03-17T09:37:53;15.60;;;3.58;;
37131;SDS011;23035;50.032;21.978;2024-03-17T09:54:25;12.75;;;3.03;;
37131;SDS011;23035;50.032;21.978;2024-03-17T09:59:28;8.90;;;3.10;;
37131;SDS011;23035;50.032;21.978;2024-03-17T10:04:33;11.18;;;4.03;;
37131;SDS011;23035;50.032;21.978;2024-03-17T10:09:38;8.43;;;2.88;;
37131;SDS011;23035;50.032;21.978;2024-03-17T10:14:43;11.20;;;3.72;;
37131;SDS011;23035;50.032;21.978;2024-03-17T10:20:15;9.75;;;2.47;;
37131;SDS011;23035;50.032;21.978;2024-03-17T10:25:19;9.75;;;2.78;;
37131;SDS011;23035;50.032;21.978;2024-03-17T10:30:22;11.90;;;3.03;;
37131;SDS011;23035;50.032;21.978;2024-03-17T10:35:30;7.25;;;2.78;;
37131;SDS011;23035;50.032;21.978;2024-03-17T10:40:37;7.32;;;2.85;;
37131;SDS011;23035;50.032;21.978;2024-03-17T10:45:40;8.90;;;2.80;;
37131;SDS011;23035;50.032;21.978;2024-03-17T10:50:45;15.05;;;2.78;;
37131;SDS011;23035;50.032;21.978;2024-03-17T10:55:51;12.52;;;3.00;;
37131;SDS011;23035;50.032;21.978;2024-03-17T11:01:06;7.22;;;2.90;;
37131;SDS011;23035;50.032;21.978;2024-03-17T11:06:20;8.40;;;2.92;;
37131;SDS011;23035;50.032;21.978;2024-03-17T11:11:34;8.85;;;3.65;;
37131;SDS011;23035;50.032;21.978;2024-03-17T11:16:38;11.57;;;2.80;;
37131;SDS011;23035;50.032;21.978;2024-03-17T11:21:42;10.38;;;3.05;;
37131;SDS011;23035;50.032;21.978;2024-03-17T11:26:46;8.33;;;2.83;;
37131;SDS011;23035;50.032;21.978;2024-03-17T11:31:49;8.52;;;2.78;;
37131;SDS011;23035;50.032;21.978;2024-03-17T11:36:59;10.15;;;2.53;;
37131;SDS011;23035;50.032;21.978;2024-03-17T11:42:05;10.88;;;3.38;;
37131;SDS011;23035;50.032;21.978;2024-03-17T11:47:12;8.70;;;3.22;;
37131;SDS011;23035;50.032;21.978;2024-03-17T11:52:16;5.75;;;2.97;;
37131;SDS011;23035;50.032;21.978;2024-03-17T11:57:20;12.77;;;2.78;;
37131;SDS011;23035;50.032;21.978;2024-03-17T12:02:25;6.33;;;2.23;;
37131;SDS011;23035;50.032;21.978;2024-03-17T12:07:30;10.68;;;3.20;;
37131;SDS011;23035;50.032;21.978;2024-03-17T12:12:35;11.25;;;3.38;;
37131;SDS011;23035;50.032;21.978;2024-03-17T12:17:40;18.20;;;3.37;;
37131;SDS011;23035;50.032;21.978;2024-03-17T12:22:45;13.02;;;3.33;;
37131;SDS011;23035;50.032;21.978;2024-03-17T12:27:49;11.60;;;3.15;;
37131;SDS011;23035;50.032;21.978;2024-03-17T12:32:54;10.07;;;3.27;;
37131;SDS011;23035;50.032;21.978;2024-03-17T12:37:59;12.85;;;3.35;;
37131;SDS011;23035;50.032;21.978;2024-03-17T12:43:02;10.33;;;3.50;;
37131;SDS011;23035;50.032;21.978;2024-03-17T12:48:12;13.55;;;3.45;;
37131;SDS011;23035;50.032;21.978;2024-03-17T12:53:19;17.45;;;5.07;;
37131;SDS011;23035;50.032;21.978;2024-03-17T12:58:25;17.00;;;4.20;;
37131;SDS011;23035;50.032;21.978;2024-03-17T13:03:45;14.02;;;3.80;;
37131;SDS011;23035;50.032;21.978;2024-03-17T13:08:52;8.10;;;3.00;;
37131;SDS011;23035;50.032;21.978;2024-03-17T13:13:55;10.25;;;3.63;;
37131;SDS011;23035;50.032;21.978;2024-03-17T13:18:58;13.52;;;3.50;;
37131;SDS011;23035;50.032;21.978;2024-03-17T13:24:03;9.90;;;3.42;;
37131;SDS011;23035;50.032;21.978;2024-03-17T13:29:06;12.60;;;3.23;;
37131;SDS011;23035;50.032;21.978;2024-03-17T13:34:09;12.45;;;3.08;;
37131;SDS011;23035;50.032;21.978;2024-03-17T13:39:14;8.32;;;2.75;;
37131;SDS011;23035;50.032;21.978;2024-03-17T13:44:20;15.07;;;3.45;;
37131;SDS011;23035;50.032;21.978;2024-03-17T13:49:24;14.88;;;4.18;;
37131;SDS011;23035;50.032;21.978;2024-03-17T13:54:29;12.45;;;3.03;;
37131;SDS011;23035;50.032;21.978;2024-03-17T13:59:33;10.95;;;2.72;;
37131;SDS011;23035;50.032;21.978;2024-03-17T14:04:37;7.10;;;2.65;;
37131;SDS011;23035;50.032;21.978;2024-03-17T14:09:42;9.88;;;2.78;;
37131;SDS011;23035;50.032;21.978;2024-03-17T14:14:45;15.00;;;3.25;;
37131;SDS011;23035;50.032;21.978;2024-03-17T14:19:48;9.60;;;2.70;;
37131;SDS011;23035;50.032;21.978;2024-03-17T14:24:53;12.43;;;3.45;;
37131;SDS011;23035;50.032;21.978;2024-03-17T14:29:56;9.38;;;3.67;;
37131;SDS011;23035;50.032;21.978;2024-03-17T14:35:13;6.50;;;2.63;;
37131;SDS011;23035;50.032;21.978;2024-03-17T14:45:41;10.70;;;2.58;;
37131;SDS011;23035;50.032;21.978;2024-03-17T14:50:44;9.05;;;2.50;;
37131;SDS011;23035;50.032;21.978;2024-03-17T14:55:48;10.90;;;3.20;;
37131;SDS011;23035;50.032;21.978;2024-03-17T15:00:54;10.38;;;2.70;;
37131;SDS011;23035;50.032;21.978;2024-03-17T15:05:57;7.13;;;2.78;;
37131;SDS011;23035;50.032;21.978;2024-03-17T15:11:02;11.93;;;3.22;;
37131;SDS011;23035;50.032;21.978;2024-03-17T15:16:05;11.93;;;2.78;;
37131;SDS011;23035;50.032;21.978;2024-03-17T15:21:09;7.45;;;2.92;;
37131;SDS011;23035;50.032;21.978;2024-03-17T15:26:15;6.63;;;2.35;;
37131;SDS011;23035;50.032;21.978;2024-03-17T15:31:18;6.13;;;2.58;;
37131;SDS011;23035;50.032;21.978;2024-03-17T15:36:23;8.63;;;2.30;;
37131;SDS011;23035;50.032;21.978;2024-03-17T15:41:28;8.52;;;3.10;;
37131;SDS011;23035;50.032;21.978;2024-03-17T15:46:31;7.15;;;2.85;;
37131;SDS011;23035;50.032;21.978;2024-03-17T15:51:34;5.90;;;2.53;;
37131;SDS011;23035;50.032;21.978;2024-03-17T15:56:39;6.70;;;2.20;;
37131;SDS011;23035;50.032;21.978;2024-03-17T16:01:42;6.65;;;2.83;;
37131;SDS011;23035;50.032;21.978;2024-03-17T16:06:45;5.80;;;2.40;;
37131;SDS011;23035;50.032;21.978;2024-03-17T16:11:49;13.68;;;2.92;;
37131;SDS011;23035;50.032;21.978;2024-03-17T16:21:59;9.00;;;2.85;;
37131;SDS011;23035;50.032;21.978;2024-03-17T16:27:03;11.55;;;3.53;;
37131;SDS011;23035;50.032;21.978;2024-03-17T16:32:07;16.00;;;3.38;;
37131;SDS011;23035;50.032;21.978;2024-03-17T16:37:12;11.13;;;4.20;;
37131;SDS011;23035;50.032;21.978;2024-03-17T16:42:16;14.10;;;3.85;;
37131;SDS011;23035;50.032;21.978;2024-03-17T16:47:26;26.00;;;8.73;;
37131;SDS011;23035;50.032;21.978;2024-03-17T16:52:31;20.05;;;7.53;;
37131;SDS011;23035;50.032;21.978;2024-03-17T16:57:37;19.52;;;7.70;;
37131;SDS011;23035;50.032;21.978;2024-03-17T17:02:40;29.58;;;12.45;;
37131;SDS011;23035;50.032;21.978;2024-03-17T17:07:44;33.95;;;13.90;;
37131;SDS011;23035;50.032;21.978;2024-03-17T17:12:49;90.10;;;33.90;;
37131;SDS011;23035;50.032;21.978;2024-03-17T17:17:52;66.38;;;28.70;;
37131;SDS011;23035;50.032;21.978;2024-03-17T17:22:58;36.30;;;15.80;;
37131;SDS011;23035;50.032;21.978;2024-03-17T17:28:03;34.22;;;12.85;;
37131;SDS011;23035;50.032;21.978;2024-03-17T17:33:06;30.07;;;10.47;;
37131;SDS011;23035;50.032;21.978;2024-03-17T17:38:09;27.77;;;8.63;;
37131;SDS011;23035;50.032;21.978;2024-03-17T17:43:14;33.10;;;10.45;;
37131;SDS011;23035;50.032;21.978;2024-03-17T17:48:18;32.75;;;10.88;;
37131;SDS011;23035;50.032;21.978;2024-03-17T17:53:28;23.63;;;8.38;;
37131;SDS011;23035;50.032;21.978;2024-03-17T17:58:36;24.75;;;9.13;;
37131;SDS011;23035;50.032;21.978;2024-03-17T18:03:47;21.90;;;9.43;;
37131;SDS011;23035;50.032;21.978;2024-03-17T18:09:01;24.15;;;9.73;;
37131;SDS011;23035;50.032;21.978;2024-03-17T18:14:19;25.40;;;10.50;;
37131;SDS011;23035;50.032;21.978;2024-03-17T18:19:26;28.38;;;11.43;;
37131;SDS011;23035;50.032;21.978;2024-03-17T18:24:30;26.75;;;10.70;;
37131;SDS011;23035;50.032;21.978;2024-03-17T18:29:34;18.50;;;7.32;;
37131;SDS011;23035;50.032;21.978;2024-03-17T18:34:39;18.52;;;6.82;;
37131;SDS011;23035;50.032;21.978;2024-03-17T18:39:42;19.02;;;5.85;;
37131;SDS011;23035;50.032;21.978;2024-03-17T18:44:49;17.77;;;6.65;;
37131;SDS011;23035;50.032;21.978;2024-03-17T18:49:52;15.65;;;5.65;;
37131;SDS011;23035;50.032;21.978;2024-03-17T18:54:55;14.18;;;5.03;;
37131;SDS011;23035;50.032;21.978;2024-03-17T19:00:01;22.13;;;6.28;;
37131;SDS011;23035;50.032;21.978;2024-03-17T19:05:06;19.80;;;6.35;;
37131;SDS011;23035;50.032;21.978;2024-03-17T19:10:11;23.00;;;8.95;;
37131;SDS011;23035;50.032;21.978;2024-03-17T19:15:16;30.15;;;11.05;;
37131;SDS011;23035;50.032;21.978;2024-03-17T19:20:19;18.42;;;5.93;;
37131;SDS011;23035;50.032;21.978;2024-03-17T19:25:23;16.70;;;7.18;;
37131;SDS011;23035;50.032;21.978;2024-03-17T19:30:27;30.40;;;10.55;;
37131;SDS011;23035;50.032;21.978;2024-03-17T19:35:31;14.37;;;5.50;;
37131;SDS011;23035;50.032;21.978;2024-03-17T19:40:34;19.40;;;6.38;;
37131;SDS011;23035;50.032;21.978;2024-03-17T19:45:38;13.63;;;5.40;;
37131;SDS011;23035;50.032;21.978;2024-03-17T19:50:41;19.30;;;6.18;;
37131;SDS011;23035;50.032;21.978;2024-03-17T19:55:46;12.98;;;5.55;;
37131;SDS011;23035;50.032;21.978;2024-03-17T20:00:52;16.70;;;6.07;;
37131;SDS011;23035;50.032;21.978;2024-03-17T20:05:55;12.75;;;5.65;;
37131;SDS011;23035;50.032;21.978;2024-03-17T20:11:00;18.33;;;5.95;;
37131;SDS011;23035;50.032;21.978;2024-03-17T20:16:06;24.88;;;9.13;;
37131;SDS011;23035;50.032;21.978;2024-03-17T20:21:14;20.90;;;9.13;;
37131;SDS011;23035;50.032;21.978;2024-03-17T20:26:17;69.95;;;24.10;;
37131;SDS011;23035;50.032;21.978;2024-03-17T20:31:22;28.35;;;9.35;;
37131;SDS011;23035;50.032;21.978;2024-03-17T20:36:25;19.08;;;6.43;;
37131;SDS011;23035;50.032;21.978;2024-03-17T20:41:29;19.67;;;5.78;;
37131;SDS011;23035;50.032;21.978;2024-03-17T20:46:33;13.43;;;5.35;;
37131;SDS011;23035;50.032;21.978;2024-03-17T20:51:37;14.93;;;5.37;;
37131;SDS011;23035;50.032;21.978;2024-03-17T20:56:40;12.68;;;5.10;;
37131;SDS011;23035;50.032;21.978;2024-03-17T21:01:47;13.27;;;5.65;;
37131;SDS011;23035;50.032;21.978;2024-03-17T21:06:50;13.13;;;5.20;;
37131;SDS011;23035;50.032;21.978;2024-03-17T21:11:54;14.02;;;5.13;;
37131;SDS011;23035;50.032;21.978;2024-03-17T21:16:59;12.95;;;5.35;;
37131;SDS011;23035;50.032;21.978;2024-03-17T21:22:03;20.20;;;7.97;;
37131;SDS011;23035;50.032;21.978;2024-03-17T21:33:09;11.07;;;5.60;;
37131;SDS011;23035;50.032;21.978;2024-03-17T21:51:17;10.32;;;4.68;;
37131;SDS011;23035;50.032;21.978;2024-03-17T21:56:20;20.75;;;6.30;;
37131;SDS011;23035;50.032;21.978;2024-03-17T22:01:24;13.38;;;5.95;;
37131;SDS011;23035;50.032;21.978;2024-03-17T22:06:28;14.50;;;5.85;;
37131;SDS011;23035;50.032;21.978;2024-03-17T22:11:34;14.27;;;5.97;;
37131;SDS011;23035;50.032;21.978;2024-03-17T22:16:44;16.92;;;6.50;;
37131;SDS011;23035;50.032;21.978;2024-03-17T22:22:00;18.33;;;6.55;;
37131;SDS011;23035;50.032;21.978;2024-03-17T22:27:06;16.65;;;5.82;;
37131;SDS011;23035;50.032;21.978;2024-03-17T22:32:32;14.57;;;6.40;;
37131;SDS011;23035;50.032;21.978;2024-03-17T22:37:37;14.10;;;6.10;;
37131;SDS011;23035;50.032;21.978;2024-03-17T22:42:40;19.27;;;6.45;;
37131;SDS011;23035;50.032;21.978;2024-03-17T22:47:44;20.00;;;7.57;;
37131;SDS011;23035;50.032;21.978;2024-03-17T22:52:49;14.75;;;5.97;;
37131;SDS011;23035;50.032;21.978;2024-03-17T22:57:56;11.85;;;4.65;;
37131;SDS011;23035;50.032;21.978;2024-03-17T23:03:00;11.68;;;5.68;;
37131;SDS011;23035;50.032;21.978;2024-03-17T23:08:05;13.35;;;5.55;;
37131;SDS011;23035;50.032;21.978;2024-03-17T23:21:04;9.45;;;4.60;;
37131;SDS011;23035;50.032;21.978;2024-03-17T23:26:12;9.90;;;4.47;;
37131;SDS011;23035;50.032;21.978;2024-03-17T23:31:21;7.72;;;3.65;;
37131;SDS011;23035;50.032;21.978;2024-03-17T23:36:24;7.55;;;3.20;;
37131;SDS011;23035;50.032;21.978;2024-03-17T23:41:28;6.72;;;3.10;;
37131;SDS011;23035;50.032;21.978;2024-03-17T23:46:31;8.45;;;3.20;;
37131;SDS011;23035;50.032;21.978;2024-03-17T23:51:35;4.55;;;2.88;;
37131;SDS011;23035;50.032;21.978;2024-03-17T23:56:39;5.43;;;2.80;;
